Accueil
METAR-TAF:

METAR-TAF

Aéroports :

Aéroport exécutif Gatineau-Ottawa

Gatineau, Québec, Canada

latitude: 45-31N, longitude: 075-34W, altitude: 64 m

Observation

Le bulletin a été fait il y a 5 heures et 59 minutes, à 01:00 UTC
Vent calme
Température -5°C
Humidité 68%
Pression 1027 hPa
Visibilité: 24.1 km
Quelques nuages à une hauteur de 5800 ft

METAR: CYND 200100Z 00000KT 15SM FEW058 M05/M10 A3032 RMK SC2 LAST STFD OBS/NEXT 201100 UTC SLP275

Heure: 02:59 (06:59 UTC)

Prévision

Le bulletin a été fait il y a 13 heures et 19 minutes, à 17:40 UTC
Prévision valable du 19 à 18 UTC au 20 à 01 UTC
Vent 3 kt de direction variable
Visibilité: 10 km
Nuages épars à une hauteur de 7000 ft
Temporairement
du 19 à 19 UTC au 19 à 23 UTC
Nuages fragmentés à une hauteur de 7000 ft

TAF: CYND 191740Z 1918/2001 VRB03KT P6SM SCT070 TEMPO 1919/1923 BKN070 RMK NXT FCST WILL BE ISSUED AT 201245Z

Observations et prévisions météorologiques de plus de 4000 aéroports (messages METAR et TAF).

Les stations disponibles sont représentées par des disques jaunes et rouges sur la carte.

Passer la souris dessus pour voir le nom de la station.

Cliquer dessus pour voir les observations et prévisions météorologiques.

Pour changer de carte: cliquez sur les boutons verts avec une croix noire pour zoomer, sur le bouton vert avec un tiret pour effectuer un zoom arrière, ou sur les flèches vertes pour les cartes adjacentes.


METAR-TAF: